Time;durP1;ratioP1;P1;durP2;ratioP2;P2;SDS_P1;SDS_P2;PMS_P1;PMS_P2;Temp;Humidity;BMP_temperature;BMP_pressure;BME280_temperature;BME280_humidity;BME280_pressure;Samples;Min_cycle;Max_cycle;Signal;HPM_P1;HPM_P2
2022/11/12 00:00:39;;;;;;;;;26.00;24.67;;;;;10.90;100.00;102223.31;6291907;22;45791;-85
2022/11/12 00:03:05;;;;;;;;;25.00;24.00;;;;;10.88;100.00;102217.00;6290954;22;47071;-85
2022/11/12 00:05:31;;;;;;;;;24.67;24.33;;;;;10.75;100.00;102192.63;6318825;22;45398;-86
2022/11/12 00:07:56;;;;;;;;;20.67;19.67;;;;;10.86;100.00;102211.63;6290919;22;45304;-86
2022/11/12 00:10:22;;;;;;;;;29.00;26.00;;;;;10.70;100.00;102182.66;6318845;22;45571;-86
2022/11/12 00:12:48;;;;;;;;;22.67;22.67;;;;;10.85;100.00;102215.16;6293449;22;46638;-86
2022/11/12 00:15:13;;;;;;;;;29.67;25.00;;;;;10.84;100.00;102217.75;6319945;22;45341;-86
2022/11/12 00:17:39;;;;;;;;;22.67;20.33;;;;;10.81;100.00;102214.13;6291946;22;44727;-86
2022/11/12 00:20:08;;;;;;;;;29.00;24.33;;;;;10.84;100.00;102210.66;6291596;22;45278;-85
2022/11/12 00:22:33;;;;;;;;;24.00;24.00;;;;;10.79;100.00;102210.50;6290838;22;47172;-85
2022/11/12 00:28:21;;;;;;;;;27.67;25.33;;;;;10.80;100.00;102214.06;6319416;22;45322;-85
2022/11/12 00:30:46;;;;;;;;;26.67;24.33;;;;;10.82;100.00;102220.34;6291933;22;45558;-86
2022/11/12 00:33:12;;;;;;;;;28.33;27.33;;;;;10.82;100.00;102225.69;6320935;22;45015;-85
2022/11/12 00:35:37;;;;;;;;;32.00;29.00;;;;;10.76;100.00;102214.81;6318218;22;45318;-85
2022/11/12 00:38:59;;;;;;;;;23.33;20.00;;;;;10.86;100.00;102230.25;6318657;22;45296;-86
2022/11/12 00:41:25;;;;;;;;;29.00;27.67;;;;;10.79;100.00;102213.16;6291253;22;45307;-86
2022/11/12 00:43:50;;;;;;;;;25.00;25.00;;;;;10.78;100.00;102216.66;6291496;22;47895;-86
2022/11/12 00:46:16;;;;;;;;;30.67;27.33;;;;;10.74;100.00;102203.19;6292610;22;45532;-86
2022/11/12 00:48:41;;;;;;;;;26.67;26.67;;;;;10.75;100.00;102207.69;6317674;22;45341;-86
2022/11/12 00:51:09;;;;;;;;;24.33;24.00;;;;;10.81;100.00;102222.13;6293884;22;45439;-86
2022/11/12 00:53:34;;;;;;;;;27.33;27.00;;;;;10.81;100.00;102222.13;6291175;22;47039;-86
2022/11/12 00:56:04;;;;;;;;;29.00;27.00;;;;;10.81;100.00;102221.22;6318240;22;45492;-85
2022/11/12 00:58:31;;;;;;;;;26.00;25.00;;;;;10.75;100.00;102199.72;6292762;22;45339;-86
2022/11/12 01:00:57;;;;;;;;;30.67;28.67;;;;;10.80;100.00;102217.63;6317108;22;45305;-86
2022/11/12 01:03:23;;;;;;;;;28.00;27.00;;;;;10.71;100.00;102190.69;6291565;22;46938;-86
2022/11/12 01:05:48;;;;;;;;;25.67;23.33;;;;;10.70;100.00;102202.16;6319613;22;45422;-86
2022/11/12 01:08:16;;;;;;;;;27.00;25.00;;;;;10.65;100.00;102189.56;6319869;22;45241;-86
2022/11/12 01:10:42;;;;;;;;;29.33;27.00;;;;;10.72;100.00;102200.47;6292727;22;45241;-86
2022/11/12 01:13:07;;;;;;;;;30.33;30.33;;;;;10.77;100.00;102206.00;6292794;22;47993;-86
2022/11/12 01:15:33;;;;;;;;;27.33;26.00;;;;;10.59;100.00;102183.16;6320088;22;45180;-86
2022/11/12 01:17:58;;;;;;;;;27.67;25.00;;;;;10.70;100.00;102198.63;6320257;22;45166;-85
2022/11/12 01:20:24;;;;;;;;;30.67;29.00;;;;;10.68;100.00;102203.88;6290890;22;45170;-85
2022/11/12 01:22:49;;;;;;;;;26.33;24.33;;;;;10.66;100.00;102186.94;6292128;22;47819;-86
2022/11/12 01:25:14;;;;;;;;;28.00;25.00;;;;;10.69;100.00;102205.69;6291944;22;45207;-85
2022/11/12 01:27:40;;;;;;;;;27.33;24.33;;;;;10.74;100.00;102211.19;6293242;22;45345;-86
2022/11/12 01:30:06;;;;;;;;;27.00;25.67;;;;;10.56;100.00;102174.16;6294273;22;45388;-86
2022/11/12 01:32:36;;;;;;;;;24.00;24.00;;;;;10.71;100.00;102195.13;6292387;22;47391;-86
2022/11/12 01:35:02;;;;;;;;;19.33;16.00;;;;;10.54;100.00;102165.22;6291652;22;45268;-85
2022/11/12 01:37:30;;;;;;;;;26.33;25.67;;;;;10.59;100.00;102171.63;6262614;22;45335;-85
2022/11/12 01:39:56;;;;;;;;;29.33;28.00;;;;;10.44;100.00;102157.75;6259374;22;45685;-85
2022/11/12 01:42:24;;;;;;;;;31.33;29.00;;;;;10.57;100.00;102182.19;6258365;22;47656;-86
2022/11/12 01:44:51;;;;;;;;;29.00;28.67;;;;;10.41;100.00;102158.53;6257185;22;45377;-86
2022/11/12 01:47:22;;;;;;;;;28.33;27.67;;;;;10.54;100.00;102175.84;6257951;22;45313;-86
2022/11/12 01:49:54;;;;;;;;;25.00;23.33;;;;;10.53;100.00;102169.63;6283987;22;45323;-86
2022/11/12 01:52:41;;;;;;;;;31.33;31.33;;;;;10.65;100.00;102184.25;6258004;22;47636;-86
2022/11/12 01:55:20;;;;;;;;;31.00;26.00;;;;;10.63;100.00;102175.31;6258985;22;45492;-86
2022/11/12 01:57:57;;;;;;;;;26.33;25.33;;;;;10.66;100.00;102183.38;6259764;22;45354;-86
2022/11/12 02:00:29;;;;;;;;;24.00;23.00;;;;;10.67;100.00;102177.22;6283742;22;45233;-86
2022/11/12 02:02:58;;;;;;;;;25.33;24.33;;;;;10.61;100.00;102170.81;6258569;22;46906;-86
2022/11/12 02:05:25;;;;;;;;;20.00;20.00;;;;;10.58;100.00;102167.13;6258374;22;45325;-86
2022/11/12 02:07:52;;;;;;;;;28.67;26.33;;;;;10.60;100.00;102177.00;6257552;22;45301;-86
2022/11/12 02:10:18;;;;;;;;;31.33;28.33;;;;;10.51;100.00;102159.78;6281941;22;45810;-86
2022/11/12 02:15:32;;;;;;;;;27.67;25.00;;;;;10.56;100.00;102169.75;6286073;22;45383;-86
2022/11/12 02:17:57;;;;;;;;;28.00;25.33;;;;;10.49;100.00;102170.38;6259737;22;44722;-86
2022/11/12 02:20:23;;;;;;;;;25.67;24.33;;;;;10.58;100.00;102194.66;6287314;22;45325;-86
2022/11/12 02:22:54;;;;;;;;;25.00;25.00;;;;;10.49;100.00;102175.69;6286309;22;45282;-85
2022/11/12 02:25:25;;;;;;;;;30.67;29.00;;;;;10.56;100.00;102185.72;6286381;22;45373;-86
2022/11/12 02:27:53;;;;;;;;;27.00;26.00;;;;;10.57;100.00;102178.66;6289175;22;44674;-86
2022/11/12 02:30:30;;;;;;;;;26.33;24.33;;;;;10.38;100.00;102154.03;6289647;22;45384;-86
2022/11/12 02:32:56;;;;;;;;;31.00;26.33;;;;;10.48;100.00;102176.53;6259536;22;46819;-86
2022/11/12 02:35:21;;;;;;;;;23.33;23.33;;;;;10.52;100.00;102194.44;6288093;22;44820;-85
2022/11/12 02:37:47;;;;;;;;;30.00;27.67;;;;;10.50;100.00;102180.19;6260789;22;45640;-86
2022/11/12 02:40:12;;;;;;;;;27.33;26.67;;;;;10.48;100.00;102179.19;6286506;22;45439;-86
2022/11/12 02:42:38;;;;;;;;;25.33;25.33;;;;;10.46;100.00;102170.25;6261165;22;46610;-86
2022/11/12 02:45:04;;;;;;;;;20.67;20.33;;;;;10.38;100.00;102158.41;6261166;22;45309;-86
2022/11/12 02:47:29;;;;;;;;;26.33;26.00;;;;;10.52;100.00;102174.88;6287998;22;45696;-86
2022/11/12 02:49:55;;;;;;;;;30.00;27.33;;;;;10.51;100.00;102160.69;6261206;22;45331;-86
2022/11/12 02:52:20;;;;;;;;;27.00;26.00;;;;;10.45;100.00;102148.94;6260149;22;48026;-86
2022/11/12 02:54:46;;;;;;;;;24.33;23.00;;;;;10.46;100.00;102154.28;6289670;22;44693;-86
2022/11/12 02:57:11;;;;;;;;;27.00;26.00;;;;;10.36;100.00;102141.50;6259318;22;45309;-86
2022/11/12 02:59:36;;;;;;;;;31.00;26.67;;;;;10.41;100.00;102143.47;6257968;22;45461;-86
2022/11/12 03:02:02;;;;;;;;;27.33;23.00;;;;;10.36;100.00;102141.50;6257332;22;47020;-85
2022/11/12 03:04:33;;;;;;;;;30.00;23.67;;;;;10.45;100.00;102156.91;6257386;22;45826;-86
2022/11/12 03:06:59;;;;;;;;;25.33;23.33;;;;;10.32;100.00;102139.56;6286323;22;45353;-86
2022/11/12 03:09:24;;;;;;;;;34.33;28.67;;;;;10.50;100.00;102169.53;6285216;22;45345;-86
2022/11/12 03:11:50;;;;;;;;;27.67;26.00;;;;;10.46;100.00;102156.94;6258707;22;46632;-85
2022/11/12 03:14:15;;;;;;;;;24.67;24.67;;;;;10.41;100.00;102145.25;6287483;22;44768;-86
2022/11/12 03:16:41;;;;;;;;;25.33;25.33;;;;;10.47;100.00;102148.13;6259564;22;45317;-86
2022/11/12 03:19:06;;;;;;;;;25.00;24.00;;;;;10.34;100.00;102119.25;6259581;22;45279;-86
2022/11/12 03:21:32;;;;;;;;;27.67;25.67;;;;;10.47;100.00;102141.91;6261157;22;48159;-86
2022/11/12 03:23:57;;;;;;;;;28.33;26.00;;;;;10.48;100.00;102144.59;6261596;22;45383;-86
2022/11/12 03:26:23;;;;;;;;;28.33;27.67;;;;;10.50;100.00;102148.25;6262209;22;45388;-86
2022/11/12 03:28:50;;;;;;;;;24.33;23.67;;;;;10.48;100.00;102146.38;6261338;22;45470;-86
2022/11/12 03:31:15;;;;;;;;;29.67;27.33;;;;;10.28;100.00;102119.00;6288248;22;48430;-86
2022/11/12 03:37:03;;;;;;;;;25.33;24.00;;;;;10.34;100.00;102141.47;6308122;22;45440;-86
2022/11/12 03:39:28;;;;;;;;;26.33;24.67;;;;;10.33;100.00;102139.63;6320281;22;45650;-86
2022/11/12 03:41:54;;;;;;;;;25.33;21.00;;;;;10.36;100.00;102147.75;6291129;22;47095;-86
2022/11/12 03:44:19;;;;;;;;;23.00;23.00;;;;;10.22;100.00;102122.34;6318657;22;45365;-86
2022/11/12 03:46:44;;;;;;;;;25.33;22.00;;;;;10.35;100.00;102148.56;6318056;22;45291;-85
2022/11/12 03:49:10;;;;;;;;;28.67;24.67;;;;;10.28;100.00;102134.94;6290055;22;45494;-86
2022/11/12 03:51:35;;;;;;;;;25.33;24.33;;;;;10.21;100.00;102133.81;6290404;22;46674;-86
2022/11/12 03:54:32;;;;;;;;;29.67;26.00;;;;;10.31;100.00;102151.97;6289280;22;45449;-86
2022/11/12 03:56:57;;;;;;;;;28.67;26.33;;;;;9.98;100.00;102104.63;6290987;22;45190;-86
2022/11/12 03:59:22;;;;;;;;;28.00;25.00;;;;;10.28;100.00;102161.53;6291780;22;45247;-86
2022/11/12 04:01:48;;;;;;;;;28.00;26.33;;;;;10.17;100.00;102146.09;6320150;22;46565;-86
2022/11/12 04:04:13;;;;;;;;;34.33;29.33;;;;;10.18;100.00;102150.56;6291597;22;44684;-86
2022/11/12 04:09:23;;;;;;;;;22.33;22.33;;;;;10.07;100.00;102141.25;6319859;22;45217;-86
2022/11/12 04:11:48;;;;;;;;;28.67;24.00;;;;;10.19;100.00;102162.09;6319955;22;45521;-85
2022/11/12 04:15:03;;;;;;;;;30.00;30.00;;;;;10.17;100.00;102158.47;6292414;22;45315;-86
2022/11/12 04:22:57;;;;;;;;;29.00;25.67;;;;;10.17;100.00;102166.47;6318654;22;45263;-87
2022/11/12 04:28:07;;;;;;;;;36.33;30.33;;;;;10.01;100.00;102131.28;6319555;22;45279;-87
2022/11/12 04:30:32;;;;;;;;;34.67;30.33;;;;;10.17;100.00;102163.78;6291863;22;45199;-86
2022/11/12 04:32:58;;;;;;;;;30.33;28.67;;;;;10.10;100.00;102149.38;6292556;22;46804;-87
2022/11/12 04:35:36;;;;;;;;;35.00;34.33;;;;;10.00;100.00;102132.16;6290976;22;45344;-86
2022/11/12 04:38:02;;;;;;;;;30.33;29.33;;;;;10.18;100.00;102166.53;6318869;22;44726;-86
2022/11/12 04:46:02;;;;;;;;;35.00;30.00;;;;;10.13;100.00;102152.13;6320582;22;45239;-86
2022/11/12 04:48:31;;;;;;;;;33.00;28.67;;;;;10.11;100.00;102164.47;6294075;22;45199;-86
2022/11/12 04:51:02;;;;;;;;;33.67;28.33;;;;;10.11;100.00;102152.94;6293660;22;45276;-86
2022/11/12 04:53:28;;;;;;;;;33.33;28.67;;;;;10.04;100.00;102142.88;6294091;22;46869;-85
2022/11/12 04:55:56;;;;;;;;;32.00;26.33;;;;;10.01;100.00;102135.72;6294442;22;45083;-85
2022/11/12 04:58:22;;;;;;;;;30.00;27.00;;;;;10.06;100.00;102149.16;6318367;22;45158;-86
2022/11/12 05:00:48;;;;;;;;;33.33;29.00;;;;;9.95;100.00;102135.47;6266410;22;45272;-86
2022/11/12 05:03:14;;;;;;;;;32.67;26.00;;;;;10.00;100.00;102155.19;6317022;22;46733;-86
2022/11/12 05:05:39;;;;;;;;;30.00;28.33;;;;;9.84;100.00;102124.44;6290282;22;45345;-86
2022/11/12 05:08:05;;;;;;;;;29.00;27.00;;;;;10.08;100.00;102166.09;6290304;22;45361;-86
2022/11/12 05:10:31;;;;;;;;;29.33;27.00;;;;;9.93;100.00;102137.16;6291726;22;45392;-86
2022/11/12 05:12:57;;;;;;;;;34.00;29.67;;;;;10.02;100.00;102148.19;6318981;22;45076;-86
2022/11/12 05:15:23;;;;;;;;;24.67;24.67;;;;;10.09;100.00;102152.88;6292062;22;45347;-85
2022/11/12 05:17:49;;;;;;;;;28.33;25.67;;;;;10.15;100.00;102154.84;6319919;22;45313;-85
2022/11/12 05:20:14;;;;;;;;;28.33;27.00;;;;;10.17;100.00;102159.38;6320240;22;45385;-86
2022/11/12 05:22:40;;;;;;;;;31.67;31.67;;;;;10.12;100.00;102146.75;6291031;22;46700;-86
2022/11/12 05:25:07;;;;;;;;;28.67;27.33;;;;;10.21;100.00;102166.63;6320000;22;45272;-86
2022/11/12 05:27:36;;;;;;;;;29.00;28.33;;;;;10.24;100.00;102165.84;6292015;22;45645;-87
2022/11/12 05:30:02;;;;;;;;;23.33;23.00;;;;;10.16;100.00;102152.25;6291015;22;44898;-86
2022/11/12 05:32:29;;;;;;;;;30.33;28.67;;;;;10.20;100.00;102159.50;6292641;22;46976;-86
2022/11/12 05:34:55;;;;;;;;;23.00;22.00;;;;;10.16;100.00;102156.66;6322742;22;45628;-86
2022/11/12 05:37:20;;;;;;;;;31.67;25.33;;;;;10.17;100.00;102147.84;6320676;22;45289;-85
2022/11/12 05:39:48;;;;;;;;;30.00;28.33;;;;;10.26;100.00;102150.88;6320420;22;45228;-86
2022/11/12 05:42:14;;;;;;;;;29.33;29.33;;;;;10.18;100.00;102144.34;6291833;22;47317;-86
2022/11/12 05:44:40;;;;;;;;;29.33;27.33;;;;;10.15;100.00;102137.16;6291413;22;45218;-86
2022/11/12 05:47:12;;;;;;;;;25.00;22.00;;;;;10.04;100.00;102114.59;6320738;22;45347;-86
2022/11/12 05:49:37;;;;;;;;;32.00;26.67;;;;;10.30;100.00;102150.16;6292576;22;45766;-86
2022/11/12 05:52:03;;;;;;;;;30.33;28.00;;;;;10.32;100.00;102160.84;6314753;22;45755;-86
2022/11/12 05:54:28;;;;;;;;;27.67;25.67;;;;;10.33;100.00;102155.59;6319626;22;45351;-86
2022/11/12 05:56:54;;;;;;;;;33.67;30.00;;;;;10.36;100.00;102165.44;6294879;22;45261;-87
2022/11/12 05:59:19;;;;;;;;;27.00;25.33;;;;;10.32;100.00;102160.84;6321809;22;45407;-87
2022/11/12 06:01:44;;;;;;;;;30.00;29.00;;;;;10.28;100.00;102151.84;6292190;22;48423;-87
2022/11/12 06:04:12;;;;;;;;;36.67;32.67;;;;;10.27;100.00;102154.44;6292820;22;45333;-86
2022/11/12 06:06:38;;;;;;;;;28.67;28.00;;;;;10.29;100.00;102148.31;6293328;22;45589;-87
2022/11/12 06:09:04;;;;;;;;;32.00;30.67;;;;;10.36;100.00;102154.78;6321286;22;45180;-86
2022/11/12 06:11:29;;;;;;;;;29.00;28.33;;;;;10.32;100.00;102145.81;6320623;22;45283;-87
2022/11/12 06:13:55;;;;;;;;;27.33;25.00;;;;;10.38;100.00;102155.75;6320910;22;45100;-87
2022/11/12 06:16:21;;;;;;;;;30.00;28.33;;;;;10.41;100.00;102158.53;6292292;22;45341;-86
2022/11/12 06:18:46;;;;;;;;;33.33;28.67;;;;;10.32;100.00;102136.91;6321648;22;45262;-86
2022/11/12 06:21:26;;;;;;;;;27.67;26.33;;;;;10.21;100.00;102120.53;6320107;22;45280;-86
2022/11/12 06:23:54;;;;;;;;;22.67;19.00;;;;;10.33;100.00;102128.09;6292627;22;45700;-86
2022/11/12 06:26:21;;;;;;;;;23.67;23.00;;;;;10.28;100.00;102122.59;6320175;22;45249;-86
2022/11/12 06:28:51;;;;;;;;;27.00;25.00;;;;;10.20;100.00;102114.31;6292801;22;45441;-86
2022/11/12 06:31:17;;;;;;;;;28.33;24.67;;;;;10.32;100.00;102131.59;6292050;22;47102;-86
2022/11/12 06:33:43;;;;;;;;;28.33;26.33;;;;;10.42;100.00;102155.00;6292187;22;45242;-86
2022/11/12 06:36:11;;;;;;;;;29.67;24.00;;;;;10.45;100.00;102159.56;6290663;22;45345;-87
2022/11/12 06:38:38;;;;;;;;;34.00;27.67;;;;;10.40;100.00;102162.97;6291121;22;45274;-87
2022/11/12 06:42:00;;;;;;;;;25.67;23.33;;;;;10.39;100.00;102168.22;6317835;22;45464;-86
2022/11/12 06:44:26;;;;;;;;;30.67;29.00;;;;;10.36;100.00;102168.09;6290777;22;45187;-86
2022/11/12 06:46:52;;;;;;;;;28.00;23.33;;;;;10.35;100.00;102168.94;6292296;22;45484;-86
2022/11/12 06:49:17;;;;;;;;;23.67;23.67;;;;;10.31;100.00;102169.69;6292653;22;45508;-86
2022/11/12 06:51:48;;;;;;;;;24.33;23.67;;;;;10.36;100.00;102181.38;6289719;22;47172;-86
2022/11/12 06:54:14;;;;;;;;;29.00;26.00;;;;;10.33;100.00;102176.88;6265811;22;46169;-86
2022/11/12 06:56:39;;;;;;;;;25.33;25.33;;;;;10.32;100.00;102175.06;6319293;22;45248;-86
2022/11/12 06:59:05;;;;;;;;;25.67;22.67;;;;;10.37;100.00;102184.09;6321044;22;45282;-86
2022/11/12 07:01:30;;;;;;;;;31.67;25.33;;;;;10.34;100.00;102180.41;6293717;22;47366;-86
2022/11/12 07:03:56;;;;;;;;;27.00;24.33;;;;;10.36;100.00;102176.06;6292688;22;45345;-86
2022/11/12 07:06:21;;;;;;;;;3.00;0.00;;;;;10.33;100.00;102168.00;6320852;22;45341;-86
2022/11/12 07:08:48;;;;;;;;;30.33;28.67;;;;;10.28;100.00;102167.78;6292894;22;45297;-86
2022/11/12 07:11:14;;;;;;;;;29.67;28.00;;;;;10.30;100.00;102171.44;6291716;22;47489;-86
2022/11/12 07:13:39;;;;;;;;;26.67;25.67;;;;;10.27;100.00;102175.69;6292713;22;44973;-86
2022/11/12 07:16:06;;;;;;;;;25.00;23.00;;;;;10.21;100.00;102174.59;6319566;22;45621;-87
2022/11/12 07:18:34;;;;;;;;;25.33;23.67;;;;;10.17;100.00;102175.34;6292471;22;45373;-86
2022/11/12 07:21:01;;;;;;;;;18.67;17.00;;;;;10.13;100.00;102176.06;6291799;22;48348;-87
2022/11/12 07:23:27;;;;;;;;;24.00;22.00;;;;;10.14;100.00;102180.53;6291260;22;44837;-86
2022/11/12 07:26:01;;;;;;;;;27.67;23.33;;;;;10.16;100.00;102183.22;6318878;22;45416;-86
2022/11/12 07:28:27;;;;;;;;;20.33;20.33;;;;;10.16;100.00;102193.88;6291008;22;45450;-87
2022/11/12 07:30:58;;;;;;;;;26.33;25.00;;;;;10.15;100.00;102190.31;6292699;22;47628;-86
2022/11/12 07:33:24;;;;;;;;;23.67;21.67;;;;;10.12;100.00;102190.22;6321107;22;45277;-87
2022/11/12 07:36:01;;;;;;;;;27.33;24.00;;;;;10.16;100.00;102199.19;6292042;22;45184;-86
2022/11/12 07:38:28;;;;;;;;;22.00;21.00;;;;;10.13;100.00;102197.31;6262313;22;44820;-86
2022/11/12 07:41:04;;;;;;;;;26.33;23.00;;;;;10.16;100.00;102199.19;6287039;22;47195;-86
2022/11/12 07:43:34;;;;;;;;;25.00;22.00;;;;;10.16;100.00;102205.44;6261530;22;45279;-87
2022/11/12 07:46:05;;;;;;;;;28.67;24.67;;;;;10.21;100.00;102211.81;6288556;22;45343;-87
2022/11/12 07:48:32;;;;;;;;;20.00;18.33;;;;;10.20;100.00;102210.03;6286033;22;45510;-86
2022/11/12 07:51:18;;;;;;;;;23.33;21.33;;;;;10.16;100.00;102194.81;6287376;22;45488;-86
2022/11/12 07:53:45;;;;;;;;;24.33;23.33;;;;;10.13;100.00;102194.66;6260144;22;45085;-87
2022/11/12 07:56:13;;;;;;;;;22.33;22.33;;;;;10.28;100.00;102210.34;6260225;22;44625;-87
2022/11/12 08:02:08;;;;;;;;;28.67;25.33;;;;;10.29;100.00;102200.59;6290344;22;45294;-87
2022/11/12 08:04:37;;;;;;;;;25.00;23.00;;;;;10.38;100.00;102223.16;6289157;22;45269;-86
2022/11/12 08:07:02;;;;;;;;;23.67;22.33;;;;;10.38;100.00;102222.25;6262060;22;45198;-86
2022/11/12 08:09:28;;;;;;;;;22.67;22.67;;;;;10.47;100.00;102227.03;6262147;22;45243;-86
2022/11/12 08:15:15;;;;;;;;;28.00;25.67;;;;;10.53;100.00;102212.19;6287341;22;45364;-86
2022/11/12 08:17:40;;;;;;;;;26.33;26.33;;;;;10.56;100.00;102225.63;6259203;22;45354;-87
2022/11/12 08:20:07;;;;;;;;;27.67;27.33;;;;;10.67;100.00;102241.09;6289394;22;44704;-86
2022/11/12 08:22:32;;;;;;;;;31.00;29.33;;;;;10.69;100.00;102234.06;6260732;22;46557;-86
2022/11/12 08:24:57;;;;;;;;;31.00;29.00;;;;;10.69;100.00;102229.66;6288301;22;45294;-86
2022/11/12 08:27:23;;;;;;;;;29.00;27.67;;;;;10.74;100.00;102236.03;6259627;22;44843;-87
2022/11/12 08:29:48;;;;;;;;;29.67;26.00;;;;;10.79;100.00;102230.91;6261346;22;45261;-87
2022/11/12 08:32:17;;;;;;;;;24.67;24.67;;;;;10.91;100.00;102241.09;6261113;22;47183;-86
2022/11/12 08:34:42;;;;;;;;;30.33;25.67;;;;;11.04;100.00;102247.78;6260735;22;45991;-86
2022/11/12 08:37:08;;;;;;;;;28.67;24.67;;;;;11.10;100.00;102254.22;6302918;22;45286;-86
2022/11/12 08:39:33;;;;;;;;;32.67;31.00;;;;;11.09;100.00;102248.81;6289208;22;45269;-86
2022/11/12 08:41:59;;;;;;;;;26.00;21.67;;;;;11.15;100.00;102257.97;6288720;22;47331;-86
2022/11/12 08:44:24;;;;;;;;;26.00;26.00;;;;;11.14;100.00;102257.91;6289866;22;45294;-86
2022/11/12 08:46:50;;;;;;;;;29.33;28.00;;;;;11.06;100.00;102241.63;6291159;22;45102;-86
2022/11/12 08:49:18;;;;;;;;;33.00;31.67;;;;;11.00;100.00;102229.00;6291824;22;45508;-86
2022/11/12 08:51:44;;;;;;;;;39.00;34.33;;;;;11.18;100.00;102251.84;6291810;22;46958;-86
2022/11/12 08:54:13;;;;;;;;;32.00;30.00;;;;;11.10;100.00;102230.25;6291861;22;45799;-86
2022/11/12 08:56:39;;;;;;;;;29.33;28.33;;;;;11.18;100.00;102241.19;6291106;22;45202;-86
2022/11/12 08:59:04;;;;;;;;;30.67;27.33;;;;;11.12;100.00;102227.66;6319923;22;44728;-86
2022/11/12 09:01:33;;;;;;;;;34.67;27.67;;;;;11.13;100.00;102222.38;6291679;22;46892;-86
2022/11/12 09:03:58;;;;;;;;;23.67;23.67;;;;;11.04;100.00;102202.50;6318836;22;45326;-86
2022/11/12 09:06:24;;;;;;;;;36.00;33.33;;;;;11.20;100.00;102234.16;6290942;22;45418;-86
2022/11/12 09:08:49;;;;;;;;;33.33;31.67;;;;;11.17;100.00;102218.06;6290283;22;45262;-85
2022/11/12 09:11:15;;;;;;;;;28.33;28.33;;;;;11.28;100.00;102234.44;6318928;22;45247;-87
2022/11/12 09:13:41;;;;;;;;;32.33;26.67;;;;;11.26;100.00;102231.69;6289636;22;45349;-86
2022/11/12 09:16:08;;;;;;;;;35.33;33.00;;;;;11.26;100.00;102233.47;6291153;22;45376;-86
2022/11/12 09:18:34;;;;;;;;;27.67;27.67;;;;;11.21;100.00;102226.22;6319133;22;45341;-86
2022/11/12 09:21:02;;;;;;;;;28.33;28.33;;;;;11.24;100.00;102228.06;6290691;22;46246;-87
2022/11/12 09:23:27;;;;;;;;;27.33;27.33;;;;;11.20;100.00;102234.16;6289830;22;45983;-86
2022/11/12 09:25:57;;;;;;;;;35.67;30.33;;;;;11.17;100.00;102226.06;6289497;22;45325;-87
2022/11/12 09:28:24;;;;;;;;;31.00;30.00;;;;;11.15;100.00;102203.78;6289630;22;45345;-86
2022/11/12 09:30:56;;;;;;;;;27.00;26.00;;;;;11.27;100.00;102214.88;6319283;22;45600;-86
2022/11/12 09:33:59;;;;;;;;;33.33;30.33;;;;;11.39;100.00;102236.63;6291874;22;45676;-86
2022/11/12 09:36:24;;;;;;;;;25.67;25.67;;;;;11.43;100.00;102232.28;6290714;22;45787;-87
2022/11/12 09:38:50;;;;;;;;;27.00;25.67;;;;;11.46;100.00;102227.06;6291310;22;45377;-86
2022/11/12 09:41:25;;;;;;;;;32.67;28.00;;;;;11.44;100.00;102207.47;6290426;22;47238;-87
2022/11/12 09:44:08;;;;;;;;;34.67;30.33;;;;;11.44;100.00;102191.47;6290945;22;45322;-87
2022/11/12 09:46:48;;;;;;;;;32.33;28.67;;;;;11.57;100.00;102198.13;6288103;22;45402;-87
2022/11/12 09:49:15;;;;;;;;;28.33;25.67;;;;;11.75;100.00;102212.03;6289614;22;45454;-86
2022/11/12 09:51:48;;;;;;;;;30.00;27.67;;;;;11.89;100.00;102224.97;6289490;22;46997;-86
2022/11/12 09:54:22;;;;;;;;;32.67;30.00;;;;;12.03;100.00;102244.97;6289933;22;45246;-88
2022/11/12 09:56:48;;;;;;;;;31.00;28.33;;;;;11.90;100.00;102202.78;6288626;22;45285;-86
2022/11/12 09:59:15;;;;;;;;;29.00;28.00;;;;;11.97;100.00;102197.69;6318019;22;45279;-87
2022/11/12 10:02:22;;;;;;;;;32.33;29.00;;;;;12.20;100.00;102230.44;6290810;22;46554;-87
2022/11/12 10:05:02;;;;;;;;;31.67;28.67;;;;;12.40;100.00;102248.78;6162996;23;44903;-87
2022/11/12 10:07:43;;;;;;;;;28.00;28.00;;;;;12.50;100.00;102250.91;6138240;23;44798;-86
2022/11/12 10:10:31;;;;;;;;;31.00;27.00;;;;;12.57;100.00;102247.56;6162934;22;45831;-86
2022/11/12 10:13:06;;;;;;;;;32.00;29.00;;;;;12.66;100.00;102246.00;6163665;22;45321;-87
2022/11/12 10:18:44;;;;;;;;;32.00;29.00;;;;;12.69;100.00;102243.44;6160394;22;45333;-87
2022/11/12 10:21:41;;;;;;;;;32.00;30.67;;;;;12.72;100.00;102235.50;6135866;23;44805;-87
2022/11/12 10:24:10;;;;;;;;;31.00;27.67;;;;;12.65;100.00;102217.53;6155461;22;47862;-87
2022/11/12 10:26:39;;;;;;;;;31.00;31.00;;;;;12.77;100.00;102239.25;6136136;23;45145;-87
2022/11/12 10:29:28;;;;;;;;;31.00;28.33;;;;;12.81;100.00;102239.38;6160452;22;45500;-87
2022/11/12 10:31:54;;;;;;;;;31.67;31.33;;;;;12.84;100.00;102234.97;6151799;23;45281;-88
2022/11/12 10:34:21;;;;;;;;;36.67;31.00;;;;;12.86;100.00;102226.13;6135759;23;46733;-87
2022/11/12 10:37:15;;;;;;;;;38.00;29.67;;;;;13.01;100.00;102228.34;6131845;23;45286;-86
2022/11/12 10:39:48;;;;;;;;;31.33;29.67;;;;;13.08;100.00;102224.06;6105975;23;45434;-87
2022/11/12 10:42:17;;;;;;;;;35.67;33.00;;;;;13.11;100.00;102218.78;6227907;22;45374;-87
2022/11/12 10:44:43;;;;;;;;;36.00;33.00;;;;;13.16;100.00;102222.50;6287247;22;45642;-87
2022/11/12 10:47:41;;;;;;;;;39.33;33.67;;;;;13.25;100.00;102220.09;6257356;22;45306;-87
2022/11/12 10:50:16;;;;;;;;;34.00;31.67;;;;;13.33;100.00;102221.25;6257965;22;45510;-86
2022/11/12 10:53:06;;;;;;;;;36.33;33.33;;;;;13.42;100.00;102222.34;6286102;22;45695;-86
2022/11/12 10:55:37;;;;;;;;;47.00;41.00;;;;;13.40;100.00;102201.81;6283854;22;45446;-87
2022/11/12 10:58:09;;;;;;;;;32.67;32.33;;;;;13.46;100.00;102210.88;6259008;22;44937;-88
2022/11/12 11:00:36;;;;;;;;;36.50;32.00;;;;;13.40;100.00;102196.47;6258507;22;45381;-87
2022/11/12 11:03:06;;;;;;;;;34.33;32.67;;;;;13.36;100.00;102186.56;6286227;22;45382;-87
2022/11/12 11:05:36;;;;;;;;;41.00;34.00;;;;;13.36;100.00;102189.25;6258792;22;47215;-86
2022/11/12 11:08:02;;;;;;;;;35.67;33.33;;;;;13.23;100.00;102170.16;6258201;22;45557;-86
2022/11/12 11:10:29;;;;;;;;;36.00;32.67;;;;;13.32;100.00;102176.66;6257571;22;45426;-86
2022/11/12 11:13:19;;;;;;;;;39.33;35.33;;;;;13.42;100.00;102179.59;6286054;22;44790;-87
2022/11/12 11:16:06;;;;;;;;;44.00;32.33;;;;;13.45;100.00;102175.19;6282429;22;45494;-87
2022/11/12 11:18:34;;;;;;;;;37.00;32.33;;;;;13.50;100.00;102175.34;6283348;22;46024;-86
2022/11/12 11:21:07;;;;;;;;;35.67;32.00;;;;;13.63;100.00;102172.09;6258036;22;45361;-86
2022/11/12 11:23:44;;;;;;;;;31.33;30.00;;;;;13.68;100.00;102159.75;6258121;22;45588;-87
2022/11/12 11:26:31;;;;;;;;;38.67;34.33;;;;;13.68;100.00;102154.41;6285689;22;45402;-87
2022/11/12 11:31:58;;;;;;;;;45.67;33.67;;;;;13.72;100.00;102150.94;6253635;22;45377;-87
2022/11/12 11:34:42;;;;;;;;;34.33;34.00;;;;;13.75;100.00;102151.00;6099931;23;45479;-87
2022/11/12 11:37:28;;;;;;;;;39.67;34.00;;;;;13.78;100.00;102140.38;6098482;23;46963;-87
2022/11/12 11:40:35;;;;;;;;;27.33;26.00;;;;;13.84;100.00;102128.03;6075811;23;45406;-87
2022/11/12 11:43:07;;;;;;;;;37.00;32.33;;;;;13.90;100.00;102128.19;6079077;23;44840;-87
2022/11/12 11:46:03;;;;;;;;;38.33;35.00;;;;;13.97;100.00;102128.31;6103751;23;45352;-87
2022/11/12 11:48:53;;;;;;;;;32.33;30.33;;;;;14.08;100.00;102131.25;6102479;23;48295;-86
2022/11/12 11:51:46;;;;;;;;;39.00;36.00;;;;;14.20;100.00;102133.28;6102209;23;45260;-87